Time;durP1;ratioP1;P1;durP2;ratioP2;P2;SDS_P1;SDS_P2;PMS_P1;PMS_P2;Temp;Humidity;BMP_temperature;BMP_pressure;BME280_temperature;BME280_humidity;BME280_pressure;Samples;Min_cycle;Max_cycle;Signal;HPM_P1;HPM_P2
2021/08/12 00:00:55;;;;;;;32.05;22.55;;;17.70;99.90;;;;;;5000731;28;25088;-68
2021/08/12 00:03:22;;;;;;;32.45;23.02;;;17.70;99.90;;;;;;5003588;28;25058;-67
2021/08/12 00:05:48;;;;;;;32.83;24.83;;;17.70;99.90;;;;;;5006997;28;25102;-70
2021/08/12 00:08:14;;;;;;;33.38;23.15;;;17.50;99.90;;;;;;5010246;28;25077;-68
2021/08/12 00:10:40;;;;;;;33.75;25.20;;;17.40;99.90;;;;;;5012956;28;25072;-68
2021/08/12 00:13:06;;;;;;;34.53;23.92;;;17.50;99.90;;;;;;5025180;28;25073;-70
2021/08/12 00:15:31;;;;;;;32.65;24.83;;;17.40;99.90;;;;;;5010589;28;25083;-72
2021/08/12 00:17:57;;;;;;;36.70;26.73;;;17.50;99.90;;;;;;5006444;28;25076;-68
2021/08/12 00:20:24;;;;;;;32.88;26.45;;;17.50;99.90;;;;;;5001641;28;25085;-69
2021/08/12 00:22:49;;;;;;;32.28;24.42;;;17.40;99.90;;;;;;5000641;28;25067;-69
2021/08/12 00:25:16;;;;;;;34.85;24.52;;;17.40;99.90;;;;;;5000220;28;25083;-69
2021/08/12 00:27:42;;;;;;;34.78;26.52;;;17.40;99.90;;;;;;4997169;28;25069;-68
2021/08/12 00:30:09;;;;;;;35.55;25.20;;;17.40;99.90;;;;;;4999441;28;25067;-69
2021/08/12 00:32:34;;;;;;;30.48;24.38;;;17.40;99.90;;;;;;4995533;28;25077;-68
2021/08/12 00:35:00;;;;;;;38.40;26.77;;;17.30;99.90;;;;;;4998611;28;25081;-69
2021/08/12 00:37:28;;;;;;;33.97;24.95;;;17.30;99.90;;;;;;4995718;28;25159;-69
2021/08/12 00:39:54;;;;;;;33.53;25.88;;;17.20;99.90;;;;;;4990330;28;25136;-68
2021/08/12 00:42:22;;;;;;;36.33;24.33;;;17.20;99.90;;;;;;4989341;28;25086;-69
2021/08/12 00:44:47;;;;;;;34.22;23.45;;;17.20;99.90;;;;;;4984725;28;25081;-68
2021/08/12 00:47:13;;;;;;;38.00;25.42;;;17.30;99.90;;;;;;4996391;28;25124;-69
2021/08/12 00:49:39;;;;;;;34.63;25.83;;;17.30;99.90;;;;;;4995720;28;25058;-68
2021/08/12 00:52:10;;;;;;;32.70;24.17;;;17.20;99.90;;;;;;4993277;28;25100;-68
2021/08/12 00:54:39;;;;;;;34.67;26.23;;;17.20;99.90;;;;;;4993724;28;25063;-69
2021/08/12 00:57:05;;;;;;;40.72;26.08;;;17.20;99.90;;;;;;4989800;28;25141;-71
2021/08/12 00:59:36;;;;;;;33.85;26.42;;;17.30;99.90;;;;;;4989049;28;25126;-69
2021/08/12 01:02:08;;;;;;;35.63;26.60;;;17.30;99.90;;;;;;4990338;28;25054;-69
2021/08/12 01:04:33;;;;;;;36.45;28.05;;;17.30;99.90;;;;;;4990202;28;25057;-69
2021/08/12 01:07:10;;;;;;;32.83;26.15;;;17.30;99.90;;;;;;4992211;28;25100;-69
2021/08/12 01:09:52;;;;;;;34.70;25.40;;;17.40;99.90;;;;;;4990899;28;25136;-68
2021/08/12 01:12:27;;;;;;;33.00;25.35;;;17.30;99.90;;;;;;4990451;28;25080;-70
2021/08/12 01:15:06;;;;;;;39.97;27.50;;;17.30;99.90;;;;;;4991203;28;25119;-68
2021/08/12 01:17:43;;;;;;;41.10;26.90;;;17.30;99.90;;;;;;4990014;28;25067;-69
2021/08/12 01:21:00;;;;;;;36.53;27.10;;;17.20;99.90;;;;;;4989639;28;25096;-69
2021/08/12 01:23:26;;;;;;;40.38;28.98;;;17.20;99.90;;;;;;4981511;28;25082;-69
2021/08/12 01:25:54;;;;;;;38.75;25.73;;;17.20;99.90;;;;;;4988977;28;25075;-69
2021/08/12 01:28:26;;;;;;;33.58;26.58;;;17.30;99.90;;;;;;4989067;28;25058;-69
2021/08/12 01:31:18;;;;;;;37.60;27.40;;;17.30;99.90;;;;;;4988279;28;25105;-69
2021/08/12 01:34:11;;;;;;;34.05;26.73;;;17.30;99.90;;;;;;4988135;28;25055;-69
2021/08/12 01:36:40;;;;;;;38.65;25.45;;;17.20;99.90;;;;;;4998552;28;25048;-68
2021/08/12 01:39:08;;;;;;;41.08;27.73;;;17.10;99.90;;;;;;4997723;28;25054;-69
2021/08/12 01:41:36;;;;;;;34.75;25.73;;;17.10;99.90;;;;;;4987267;28;25163;-69
2021/08/12 01:44:08;;;;;;;31.50;24.85;;;17.10;99.90;;;;;;4991364;28;25065;-69
2021/08/12 01:46:35;;;;;;;32.05;23.83;;;17.10;99.90;;;;;;4990642;28;25080;-68
2021/08/12 01:49:02;;;;;;;34.58;25.42;;;17.20;99.90;;;;;;4988124;28;25105;-68
2021/08/12 01:51:31;;;;;;;38.17;24.77;;;17.20;99.90;;;;;;4990975;28;25087;-69
2021/08/12 01:53:59;;;;;;;37.85;25.88;;;17.20;99.90;;;;;;5014513;28;25143;-68
2021/08/12 01:56:26;;;;;;;32.97;25.33;;;17.20;99.90;;;;;;4990223;28;25049;-69
2021/08/12 01:58:56;;;;;;;36.78;26.55;;;17.20;99.90;;;;;;5001165;28;25117;-67
2021/08/12 02:01:22;;;;;;;35.40;23.70;;;17.20;99.90;;;;;;4997867;28;25139;-68
2021/08/12 02:03:49;;;;;;;31.98;23.77;;;17.20;99.90;;;;;;4990461;28;25061;-69
2021/08/12 02:06:15;;;;;;;32.42;23.50;;;17.20;99.90;;;;;;4990975;28;25096;-69
2021/08/12 02:08:41;;;;;;;30.33;23.08;;;17.20;99.90;;;;;;4987428;28;25108;-68
2021/08/12 02:11:06;;;;;;;32.63;22.08;;;17.10;99.90;;;;;;4987484;28;25105;-68
2021/08/12 02:13:32;;;;;;;27.20;21.48;;;17.10;99.90;;;;;;4987901;28;25078;-68
2021/08/12 02:15:58;;;;;;;34.75;23.40;;;17.10;99.90;;;;;;4986380;28;25110;-68
2021/08/12 02:18:25;;;;;;;28.92;22.50;;;17.20;99.90;;;;;;4990518;28;25175;-69
2021/08/12 02:20:57;;;;;;;32.83;22.10;;;17.20;99.90;;;;;;4988836;28;25101;-69
2021/08/12 02:23:40;;;;;;;33.08;21.70;;;17.20;99.90;;;;;;4979140;28;25064;-68
2021/08/12 02:26:19;;;;;;;28.50;21.00;;;17.20;99.90;;;;;;5002129;28;25150;-67
2021/08/12 02:28:45;;;;;;;28.30;19.92;;;17.10;99.90;;;;;;4985770;28;25083;-70
2021/08/12 02:31:14;;;;;;;30.85;20.98;;;17.10;99.90;;;;;;4985949;28;25171;-69
2021/08/12 02:33:42;;;;;;;27.90;20.13;;;17.10;99.90;;;;;;4987461;28;25058;-68
2021/08/12 02:36:09;;;;;;;28.40;20.67;;;17.10;99.90;;;;;;4990082;28;25063;-68
2021/08/12 02:38:37;;;;;;;26.17;20.50;;;17.10;99.90;;;;;;4989586;28;25124;-67
2021/08/12 02:41:05;;;;;;;31.65;20.58;;;17.00;99.90;;;;;;4986374;28;25069;-68
2021/08/12 02:43:32;;;;;;;28.15;19.40;;;17.00;99.90;;;;;;4981174;28;25117;-68
2021/08/12 02:46:01;;;;;;;26.42;20.10;;;16.90;99.90;;;;;;4997239;28;25079;-68
2021/08/12 02:48:29;;;;;;;33.60;21.05;;;16.80;99.90;;;;;;4995688;28;25092;-68
2021/08/12 02:50:58;;;;;;;30.10;19.63;;;16.80;99.90;;;;;;4985491;28;25155;-68
2021/08/12 02:53:26;;;;;;;28.63;19.55;;;16.80;99.90;;;;;;4992982;28;25072;-69
2021/08/12 02:55:54;;;;;;;27.98;20.70;;;16.90;99.90;;;;;;5002471;28;25076;-68
2021/08/12 02:58:21;;;;;;;27.02;18.85;;;16.90;99.90;;;;;;4992546;28;25067;-68
2021/08/12 03:00:47;;;;;;;26.50;18.25;;;16.90;99.90;;;;;;4992462;28;25082;-68
2021/08/12 03:03:17;;;;;;;25.23;19.40;;;16.90;99.90;;;;;;4986545;28;25053;-70
2021/08/12 03:05:43;;;;;;;24.48;18.90;;;17.00;99.90;;;;;;4985029;28;25055;-69
2021/08/12 03:08:12;;;;;;;31.08;19.85;;;16.90;99.90;;;;;;4988278;28;25144;-68
2021/08/12 03:10:39;;;;;;;26.55;19.90;;;16.90;99.90;;;;;;4989569;28;25061;-68
2021/08/12 03:13:05;;;;;;;27.77;21.08;;;16.80;99.90;;;;;;4998231;28;25064;-68
2021/08/12 03:15:32;;;;;;;31.42;20.45;;;16.70;99.90;;;;;;4992137;28;25069;-68
2021/08/12 03:17:59;;;;;;;26.58;19.10;;;16.60;99.90;;;;;;4990732;28;25081;-67
2021/08/12 03:20:27;;;;;;;30.30;19.85;;;16.60;99.90;;;;;;4990917;28;25092;-68
2021/08/12 03:22:54;;;;;;;23.45;18.70;;;16.70;99.90;;;;;;4991180;28;25078;-68
2021/08/12 03:25:20;;;;;;;32.72;19.85;;;16.70;99.90;;;;;;4992481;28;25083;-69
2021/08/12 03:27:45;;;;;;;26.58;19.55;;;16.70;99.90;;;;;;4991056;28;25092;-67
2021/08/12 03:30:11;;;;;;;27.63;19.42;;;16.70;99.90;;;;;;4991314;28;25067;-68
2021/08/12 03:32:37;;;;;;;28.30;19.60;;;16.60;99.90;;;;;;4989816;28;25134;-68
2021/08/12 03:35:03;;;;;;;28.42;18.65;;;16.60;99.90;;;;;;4993600;28;25061;-68
2021/08/12 03:37:29;;;;;;;25.17;18.45;;;16.60;99.90;;;;;;4991487;28;25100;-69
2021/08/12 03:39:55;;;;;;;27.08;19.67;;;16.80;99.90;;;;;;4993892;28;25075;-68
2021/08/12 03:42:21;;;;;;;25.20;19.02;;;16.70;99.90;;;;;;4990670;28;25085;-67
2021/08/12 03:44:46;;;;;;;27.48;21.13;;;16.60;99.90;;;;;;4994226;28;25071;-68
2021/08/12 03:47:12;;;;;;;25.98;18.20;;;16.50;99.90;;;;;;4996689;28;25061;-69
2021/08/12 03:49:38;;;;;;;35.58;20.25;;;16.40;99.90;;;;;;4993618;28;25076;-68
2021/08/12 03:52:04;;;;;;;28.13;19.52;;;16.40;99.90;;;;;;4990596;28;25133;-68
2021/08/12 03:54:30;;;;;;;28.08;18.35;;;16.40;99.90;;;;;;4988995;28;25103;-69
2021/08/12 03:56:56;;;;;;;28.77;18.88;;;16.40;99.90;;;;;;4988952;28;25175;-69
2021/08/12 03:59:21;;;;;;;25.40;19.17;;;16.50;99.90;;;;;;4989076;28;25074;-68
2021/08/12 04:01:47;;;;;;;29.52;18.45;;;16.50;99.90;;;;;;4989094;28;25056;-69
2021/08/12 04:04:13;;;;;;;27.13;18.60;;;16.30;99.90;;;;;;4994440;28;25087;-68
2021/08/12 04:06:39;;;;;;;28.88;19.88;;;16.30;99.90;;;;;;4991477;28;25091;-69
2021/08/12 04:09:04;;;;;;;27.50;19.83;;;16.30;99.90;;;;;;4995569;28;25074;-68
2021/08/12 04:11:30;;;;;;;26.05;18.77;;;16.30;99.90;;;;;;4988997;28;25047;-68
2021/08/12 04:13:55;;;;;;;24.35;18.52;;;16.30;99.90;;;;;;4995133;28;25060;-68
2021/08/12 04:16:21;;;;;;;25.30;17.77;;;16.30;99.90;;;;;;4996163;28;25069;-69
2021/08/12 04:18:47;;;;;;;27.05;17.73;;;16.30;99.90;;;;;;4993204;28;25079;-67
2021/08/12 04:21:12;;;;;;;26.02;18.38;;;16.20;99.90;;;;;;4991091;28;25072;-68
2021/08/12 04:23:38;;;;;;;24.85;17.98;;;16.20;99.90;;;;;;4989456;28;25075;-69
2021/08/12 04:26:04;;;;;;;29.60;19.50;;;16.20;99.90;;;;;;4989073;28;25170;-67
2021/08/12 04:28:29;;;;;;;23.67;18.17;;;16.10;99.90;;;;;;4988304;28;25058;-69
2021/08/12 04:30:55;;;;;;;29.45;19.65;;;16.10;99.90;;;;;;4988611;28;25075;-68
2021/08/12 04:33:20;;;;;;;25.30;19.02;;;16.00;99.90;;;;;;4987306;28;25080;-67
2021/08/12 04:35:46;;;;;;;26.65;18.10;;;15.90;99.90;;;;;;4989401;28;25101;-67
2021/08/12 04:38:12;;;;;;;26.52;18.33;;;15.90;99.90;;;;;;4987041;28;25052;-68
2021/08/12 04:40:37;;;;;;;27.60;18.73;;;15.90;99.90;;;;;;5005667;28;25058;-69
2021/08/12 04:43:03;;;;;;;26.48;18.23;;;16.00;99.90;;;;;;4988798;28;25059;-69
2021/08/12 04:45:29;;;;;;;33.13;18.15;;;16.00;99.90;;;;;;4989189;28;25068;-67
2021/08/12 04:48:00;;;;;;;30.55;19.23;;;16.10;99.90;;;;;;4988383;28;25102;-68
2021/08/12 04:50:25;;;;;;;30.70;20.85;;;16.00;99.90;;;;;;4988464;28;25071;-69
2021/08/12 04:52:51;;;;;;;28.40;18.70;;;16.10;99.90;;;;;;4988772;28;25072;-68
2021/08/12 04:55:16;;;;;;;24.20;18.52;;;16.10;99.90;;;;;;4988413;28;25063;-68
2021/08/12 04:57:42;;;;;;;31.08;18.63;;;16.10;99.90;;;;;;4978692;28;25104;-70
2021/08/12 05:00:08;;;;;;;25.02;17.52;;;16.10;99.90;;;;;;4983310;28;25083;-68
2021/08/12 05:02:34;;;;;;;23.45;17.25;;;16.20;99.90;;;;;;4989568;28;25091;-71
2021/08/12 05:05:00;;;;;;;27.95;18.27;;;16.30;99.90;;;;;;4988919;28;25117;-68
2021/08/12 05:07:25;;;;;;;25.75;17.92;;;16.30;99.90;;;;;;4991138;28;25070;-69
2021/08/12 05:09:51;;;;;;;27.67;18.67;;;16.30;99.90;;;;;;4989014;28;25134;-69
2021/08/12 05:12:20;;;;;;;28.17;18.95;;;16.30;99.90;;;;;;4989237;28;25135;-70
2021/08/12 05:14:47;;;;;;;25.30;17.80;;;16.40;99.90;;;;;;4988590;28;25087;-71
2021/08/12 05:17:13;;;;;;;24.67;18.23;;;16.40;99.90;;;;;;4989491;28;25130;-68
2021/08/12 05:19:40;;;;;;;24.73;17.75;;;16.50;99.90;;;;;;4990378;28;25077;-68
2021/08/12 05:22:06;;;;;;;26.35;17.05;;;16.60;99.90;;;;;;4989773;28;25067;-69
2021/08/12 05:24:32;;;;;;;26.35;17.95;;;16.70;99.90;;;;;;4988703;28;25082;-68
2021/08/12 05:26:58;;;;;;;28.35;17.20;;;16.70;99.90;;;;;;4987841;28;25105;-69
2021/08/12 05:29:23;;;;;;;27.35;18.08;;;16.60;99.90;;;;;;4988129;28;25078;-68
2021/08/12 05:31:49;;;;;;;24.50;17.20;;;16.60;99.90;;;;;;4988637;28;25081;-69
2021/08/12 05:34:15;;;;;;;23.63;17.27;;;16.70;99.90;;;;;;4987583;28;25152;-68
2021/08/12 05:36:41;;;;;;;25.92;17.67;;;16.70;99.90;;;;;;4986455;28;25072;-69
2021/08/12 05:39:06;;;;;;;22.38;16.75;;;16.70;99.90;;;;;;4990047;28;25062;-68
2021/08/12 05:41:32;;;;;;;25.40;17.63;;;16.80;99.90;;;;;;4990997;28;25091;-68
2021/08/12 05:43:57;;;;;;;27.88;17.60;;;16.90;99.90;;;;;;4989801;28;25059;-67
2021/08/12 05:46:23;;;;;;;24.33;16.77;;;17.00;99.90;;;;;;4988269;28;25072;-68
2021/08/12 05:48:48;;;;;;;26.30;17.02;;;17.10;99.90;;;;;;4988701;28;25084;-69
2021/08/12 05:51:14;;;;;;;27.95;18.88;;;17.20;99.90;;;;;;4992504;28;25068;-68
2021/08/12 05:53:39;;;;;;;24.92;18.00;;;17.10;99.90;;;;;;4987704;28;25160;-69
2021/08/12 05:56:05;;;;;;;35.40;19.08;;;17.20;99.90;;;;;;4990500;28;25144;-68
2021/08/12 05:58:34;;;;;;;29.75;17.90;;;17.10;99.90;;;;;;4987824;28;25134;-67
2021/08/12 06:01:00;;;;;;;31.58;20.25;;;17.20;99.90;;;;;;4987135;28;25075;-68
2021/08/12 06:03:25;;;;;;;31.55;19.35;;;17.20;99.90;;;;;;4987754;28;25067;-69
2021/08/12 06:05:56;;;;;;;37.45;19.90;;;17.30;99.90;;;;;;4992687;28;25080;-69
2021/08/12 06:08:21;;;;;;;32.25;19.35;;;17.40;99.90;;;;;;4991656;28;25062;-68
2021/08/12 06:10:47;;;;;;;28.05;19.67;;;17.40;99.90;;;;;;4991249;28;25137;-67
2021/08/12 06:13:13;;;;;;;28.52;19.20;;;17.50;99.90;;;;;;5002116;28;25173;-68
2021/08/12 06:15:38;;;;;;;29.85;19.90;;;17.60;99.90;;;;;;4986282;28;25099;-68
2021/08/12 06:18:09;;;;;;;31.83;20.73;;;17.60;99.90;;;;;;4987037;28;25150;-69
2021/08/12 06:20:35;;;;;;;32.17;20.35;;;17.80;99.90;;;;;;4986090;28;25123;-69
2021/08/12 06:23:01;;;;;;;36.25;20.00;;;17.80;99.90;;;;;;4988527;28;25052;-67
2021/08/12 06:25:26;;;;;;;31.15;19.52;;;18.00;99.90;;;;;;4987952;28;25066;-67
2021/08/12 06:27:52;;;;;;;30.35;19.23;;;18.00;99.90;;;;;;4985813;28;25129;-68
2021/08/12 06:30:18;;;;;;;33.20;19.30;;;18.10;99.90;;;;;;4995692;28;25054;-69
2021/08/12 06:32:43;;;;;;;32.35;19.52;;;18.20;99.90;;;;;;4985953;28;25090;-67
2021/08/12 06:35:11;;;;;;;31.85;19.77;;;18.40;99.90;;;;;;4986055;28;25111;-67
2021/08/12 06:37:45;;;;;;;32.10;18.92;;;18.40;99.90;;;;;;4985663;28;25138;-69
2021/08/12 06:40:13;;;;;;;30.52;18.13;;;18.40;99.90;;;;;;4987485;28;25097;-68
2021/08/12 06:42:38;;;;;;;27.20;18.08;;;18.40;99.90;;;;;;4988874;28;25159;-68
2021/08/12 06:45:06;;;;;;;27.88;18.23;;;18.40;99.90;;;;;;4987223;28;25093;-70
2021/08/12 06:47:32;;;;;;;28.33;18.58;;;18.50;99.90;;;;;;4994204;28;25073;-68
2021/08/12 06:49:57;;;;;;;26.63;17.40;;;18.50;99.90;;;;;;4987159;28;25071;-68
2021/08/12 06:52:23;;;;;;;24.40;17.75;;;18.50;99.90;;;;;;4986909;28;25061;-69
2021/08/12 06:54:49;;;;;;;25.65;16.60;;;18.50;99.90;;;;;;4987451;28;25139;-70
2021/08/12 06:57:14;;;;;;;26.08;16.38;;;18.40;99.90;;;;;;4997123;28;25106;-68
2021/08/12 06:59:40;;;;;;;26.25;16.90;;;18.50;99.90;;;;;;4992191;28;25093;-68
2021/08/12 07:02:05;;;;;;;28.60;17.25;;;18.70;99.90;;;;;;4999359;28;25090;-69
2021/08/12 07:04:33;;;;;;;28.77;17.02;;;18.80;99.90;;;;;;4993901;28;25117;-69
2021/08/12 07:06:59;;;;;;;25.20;15.32;;;18.80;99.90;;;;;;4986476;28;25095;-70
2021/08/12 07:09:24;;;;;;;21.20;15.80;;;18.80;99.90;;;;;;4988621;28;25133;-70
2021/08/12 07:11:52;;;;;;;22.55;15.50;;;18.90;99.90;;;;;;4986835;28;25149;-69
2021/08/12 07:14:17;;;;;;;22.20;13.38;;;19.00;99.90;;;;;;4987033;28;25099;-69
2021/08/12 07:16:43;;;;;;;24.00;13.02;;;19.10;99.90;;;;;;4996388;28;25117;-69
2021/08/12 07:19:08;;;;;;;20.90;12.77;;;19.10;99.90;;;;;;4996621;28;25059;-71
2021/08/12 07:21:34;;;;;;;18.80;12.30;;;19.10;99.90;;;;;;4996243;28;25066;-70
2021/08/12 07:24:01;;;;;;;19.15;12.50;;;19.20;99.90;;;;;;4987404;28;25122;-68
2021/08/12 07:26:26;;;;;;;17.15;10.07;;;19.50;99.90;;;;;;4987406;28;25083;-69
2021/08/12 07:28:52;;;;;;;17.33;11.80;;;19.70;99.90;;;;;;4986071;28;25076;-68
2021/08/12 07:31:17;;;;;;;20.08;11.98;;;19.70;99.90;;;;;;4987462;28;25063;-71
2021/08/12 07:33:43;;;;;;;17.30;10.57;;;19.60;99.90;;;;;;4988663;28;25086;-69
2021/08/12 07:36:09;;;;;;;13.38;8.48;;;19.70;99.90;;;;;;4987142;28;25058;-69
2021/08/12 07:38:35;;;;;;;12.05;8.35;;;19.80;99.90;;;;;;4985915;28;25082;-70
2021/08/12 07:41:02;;;;;;;14.30;8.65;;;20.00;99.90;;;;;;4987741;28;25105;-70
2021/08/12 07:43:28;;;;;;;11.88;7.40;;;19.90;99.90;;;;;;4988956;28;25083;-70
2021/08/12 07:45:54;;;;;;;12.88;7.60;;;20.20;99.90;;;;;;4999605;28;25074;-69
2021/08/12 07:48:20;;;;;;;10.82;7.20;;;20.60;99.90;;;;;;4985537;28;25085;-69
2021/08/12 07:50:46;;;;;;;12.23;7.07;;;20.80;99.90;;;;;;4993911;28;25092;-71
2021/08/12 07:53:12;;;;;;;12.52;7.85;;;21.00;99.90;;;;;;4986775;28;25075;-68
2021/08/12 07:55:37;;;;;;;13.48;7.78;;;20.70;99.90;;;;;;5009210;28;25104;-70
2021/08/12 07:58:03;;;;;;;10.02;7.53;;;20.80;99.90;;;;;;4998874;28;25080;-69
2021/08/12 08:00:29;;;;;;;8.90;6.32;;;20.90;99.90;;;;;;4991860;28;25082;-69
2021/08/12 08:02:55;;;;;;;12.20;6.90;;;21.00;99.90;;;;;;5000927;28;25080;-70
2021/08/12 08:05:23;;;;;;;9.70;6.65;;;20.90;99.90;;;;;;4989707;28;25062;-68
2021/08/12 08:07:50;;;;;;;10.32;6.25;;;20.60;99.90;;;;;;4989896;28;25104;-70
2021/08/12 08:10:19;;;;;;;12.07;7.28;;;20.70;99.90;;;;;;4990394;28;25151;-70
2021/08/12 08:12:45;;;;;;;8.10;6.40;;;20.80;99.90;;;;;;4989858;28;25063;-72
2021/08/12 08:15:13;;;;;;;8.73;6.90;;;20.80;99.90;;;;;;4990619;28;25052;-69
2021/08/12 08:17:39;;;;;;;7.70;6.45;;;20.90;99.90;;;;;;5004539;28;25075;-70
2021/08/12 08:20:07;;;;;;;9.60;5.80;;;21.10;99.90;;;;;;4989227;28;25081;-69
2021/08/12 08:22:33;;;;;;;14.55;6.90;;;21.10;99.90;;;;;;5003583;28;25079;-70
2021/08/12 08:24:59;;;;;;;10.57;6.05;;;21.20;99.90;;;;;;4990103;28;25048;-69
2021/08/12 08:27:25;;;;;;;9.40;5.28;;;21.10;99.90;;;;;;4986442;28;25067;-69
2021/08/12 08:29:54;;;;;;;6.38;4.72;;;21.20;99.90;;;;;;4988924;28;25121;-69
2021/08/12 08:32:20;;;;;;;8.63;4.68;;;21.30;99.90;;;;;;4990224;28;25108;-69
2021/08/12 08:34:46;;;;;;;8.50;5.22;;;21.20;99.90;;;;;;4990594;28;25080;-70
2021/08/12 08:37:12;;;;;;;10.98;4.25;;;21.40;99.90;;;;;;4991584;28;25145;-70
2021/08/12 08:39:38;;;;;;;6.22;3.67;;;21.50;99.90;;;;;;4992675;28;25123;-69
2021/08/12 08:42:06;;;;;;;7.97;4.28;;;21.60;99.90;;;;;;4993642;28;25071;-69
2021/08/12 08:44:34;;;;;;;5.65;3.83;;;21.80;99.90;;;;;;4991068;28;25157;-70
2021/08/12 08:47:00;;;;;;;3.88;3.35;;;22.00;99.90;;;;;;4982988;28;25063;-68
2021/08/12 08:49:29;;;;;;;6.20;4.00;;;22.20;99.90;;;;;;5000033;28;25072;-70
2021/08/12 08:51:56;;;;;;;7.35;4.35;;;22.30;99.90;;;;;;4991163;28;25064;-69
2021/08/12 08:54:23;;;;;;;8.07;4.40;;;22.30;99.90;;;;;;5004994;28;25073;-70
2021/08/12 08:56:49;;;;;;;13.30;5.40;;;22.50;99.90;;;;;;4992905;28;25057;-68
2021/08/12 08:59:14;;;;;;;5.07;4.30;;;22.50;99.90;;;;;;4989537;28;25070;-70
2021/08/12 09:01:40;;;;;;;9.05;5.05;;;22.50;99.90;;;;;;4989279;28;25050;-70
2021/08/12 09:04:06;;;;;;;6.32;4.40;;;22.20;99.90;;;;;;4988039;28;25062;-70
2021/08/12 09:06:32;;;;;;;8.90;4.75;;;22.20;99.90;;;;;;4988551;28;25086;-70
2021/08/12 09:08:58;;;;;;;10.30;4.68;;;22.20;99.90;;;;;;4988049;28;25072;-69
2021/08/12 09:11:26;;;;;;;7.53;4.25;;;22.50;99.90;;;;;;5004559;28;25067;-70
2021/08/12 09:13:52;;;;;;;9.05;5.20;;;22.60;99.90;;;;;;4994015;28;25083;-68
2021/08/12 09:16:33;;;;;;;8.30;5.30;;;22.50;99.90;;;;;;4988518;28;25073;-68
2021/08/12 09:19:20;;;;;;;9.18;5.88;;;22.40;99.90;;;;;;4988752;28;25141;-69
2021/08/12 09:21:47;;;;;;;11.70;5.40;;;22.30;99.90;;;;;;5007243;28;25066;-69
2021/08/12 09:24:13;;;;;;;7.28;4.70;;;22.30;99.90;;;;;;5004743;28;25057;-69
2021/08/12 09:26:44;;;;;;;8.70;5.80;;;22.50;99.90;;;;;;4989733;28;25119;-71
2021/08/12 09:29:10;;;;;;;12.63;5.82;;;22.60;99.90;;;;;;4990963;28;25082;-68
2021/08/12 09:31:55;;;;;;;10.48;5.65;;;22.50;99.90;;;;;;4989938;28;25114;-68
2021/08/12 09:34:20;;;;;;;10.50;5.43;;;22.70;99.90;;;;;;4989833;28;25066;-69
2021/08/12 09:36:46;;;;;;;11.40;5.82;;;22.70;99.90;;;;;;4986681;28;25081;-69
2021/08/12 09:39:22;;;;;;;8.23;5.57;;;22.70;99.90;;;;;;4988091;28;25114;-66
2021/08/12 09:41:50;;;;;;;11.65;6.10;;;22.70;99.90;;;;;;5002292;28;25089;-68
2021/08/12 09:44:52;;;;;;;9.45;5.00;;;22.60;99.90;;;;;;4989842;28;25051;-70
2021/08/12 09:47:18;;;;;;;10.65;5.70;;;22.70;99.90;;;;;;4993670;28;25120;-68
2021/08/12 09:49:55;;;;;;;8.63;5.63;;;22.80;99.90;;;;;;4987342;28;25090;-69
2021/08/12 09:52:20;;;;;;;10.30;5.43;;;22.90;99.90;;;;;;4991054;28;25144;-69
2021/08/12 09:54:47;;;;;;;5.20;4.53;;;23.00;99.90;;;;;;4990392;28;25077;-69
2021/08/12 09:57:21;;;;;;;8.85;4.80;;;23.10;99.90;;;;;;4986004;28;25073;-68
2021/08/12 09:59:52;;;;;;;11.60;5.78;;;23.20;99.90;;;;;;5003133;28;25105;-67
2021/08/12 10:02:18;;;;;;;8.03;5.93;;;23.20;99.90;;;;;;4986484;28;25109;-68
2021/08/12 10:04:45;;;;;;;12.10;5.95;;;23.20;99.90;;;;;;4995569;28;25077;-68
2021/08/12 10:07:40;;;;;;;12.15;6.05;;;23.10;99.90;;;;;;4991400;28;25124;-68
2021/08/12 10:10:25;;;;;;;10.82;5.93;;;23.30;99.90;;;;;;4990029;28;25076;-66
2021/08/12 10:12:53;;;;;;;9.23;5.22;;;23.20;99.90;;;;;;4992547;28;25075;-69
2021/08/12 10:15:27;;;;;;;9.80;5.22;;;23.10;99.90;;;;;;5005517;28;25065;-70
2021/08/12 10:17:54;;;;;;;8.38;5.43;;;23.30;99.90;;;;;;4988944;28;25058;-68
2021/08/12 10:20:30;;;;;;;7.53;5.22;;;23.40;99.90;;;;;;4995160;28;25110;-70
2021/08/12 10:22:57;;;;;;;10.30;6.40;;;23.30;99.90;;;;;;5002296;28;25065;-68
2021/08/12 10:25:24;;;;;;;6.60;5.00;;;23.30;99.90;;;;;;4993983;28;25060;-68
2021/08/12 10:27:55;;;;;;;13.00;5.93;;;23.30;99.90;;;;;;4989059;28;25072;-68
2021/08/12 10:30:23;;;;;;;9.32;5.85;;;23.40;99.90;;;;;;4995817;28;25126;-68
2021/08/12 10:32:59;;;;;;;10.20;4.97;;;23.40;99.90;;;;;;4986476;28;25131;-68
2021/08/12 10:35:28;;;;;;;10.15;5.25;;;23.30;99.90;;;;;;4987180;28;25107;-68
2021/08/12 10:37:55;;;;;;;7.07;4.75;;;23.30;99.90;;;;;;5002383;28;25054;-68
2021/08/12 10:40:23;;;;;;;7.88;5.03;;;23.30;99.90;;;;;;4997850;28;25055;-68
2021/08/12 10:42:49;;;;;;;6.82;4.40;;;23.40;99.90;;;;;;5001913;28;25074;-68
2021/08/12 10:45:19;;;;;;;8.57;5.68;;;23.60;99.90;;;;;;4977736;28;25070;-68
2021/08/12 10:47:49;;;;;;;16.73;5.95;;;23.70;99.90;;;;;;4991943;28;25066;-69
2021/08/12 10:50:23;;;;;;;6.85;4.97;;;23.80;99.90;;;;;;4994332;28;25118;-69
2021/08/12 10:53:04;;;;;;;8.73;4.75;;;24.10;99.90;;;;;;4985569;28;25058;-69
2021/08/12 10:55:31;;;;;;;11.95;5.22;;;24.20;99.90;;;;;;4986943;28;25083;-67
2021/08/12 11:00:49;;;;;;;7.72;4.97;;;24.10;99.90;;;;;;4998798;28;25124;-71
2021/08/12 11:03:35;;;;;;;7.07;4.65;;;24.10;99.90;;;;;;4987274;28;25057;-68
2021/08/12 11:06:09;;;;;;;5.95;4.80;;;24.20;99.90;;;;;;4998829;28;25141;-69
2021/08/12 11:08:50;;;;;;;7.90;4.85;;;24.40;99.90;;;;;;5000627;28;25003;-69
2021/08/12 11:11:35;;;;;;;7.32;4.15;;;24.60;99.90;;;;;;4986103;28;25068;-69
2021/08/12 11:14:10;;;;;;;7.53;5.15;;;24.70;99.90;;;;;;4986396;28;25065;-69
2021/08/12 11:16:41;;;;;;;7.47;4.95;;;24.70;99.90;;;;;;4995658;28;25089;-69
2021/08/12 11:19:09;;;;;;;12.52;5.30;;;24.70;99.90;;;;;;5001835;28;25077;-69
2021/08/12 11:21:36;;;;;;;5.82;4.40;;;24.60;99.90;;;;;;4998162;28;25076;-68
2021/08/12 11:24:24;;;;;;;8.98;4.25;;;24.80;99.90;;;;;;4986308;28;25103;-67
2021/08/12 11:26:51;;;;;;;6.32;3.58;;;24.80;99.90;;;;;;4975393;28;24917;-68
2021/08/12 11:29:22;;;;;;;9.68;4.60;;;25.10;99.90;;;;;;5000288;28;25067;-69
2021/08/12 11:31:48;;;;;;;11.05;4.43;;;24.60;99.90;;;;;;5005403;28;25142;-69
2021/08/12 11:34:17;;;;;;;10.50;4.78;;;24.30;99.90;;;;;;5006736;28;25084;-68
2021/08/12 11:37:07;;;;;;;14.05;5.50;;;24.40;99.90;;;;;;4990263;28;25177;-69
2021/08/12 11:39:44;;;;;;;9.38;4.88;;;24.40;99.90;;;;;;4990079;28;25077;-69
2021/08/12 11:42:23;;;;;;;7.03;4.53;;;24.60;99.90;;;;;;4993838;28;25145;-69
2021/08/12 11:44:51;;;;;;;6.28;3.80;;;24.70;99.90;;;;;;4993597;28;25073;-68
2021/08/12 11:47:16;;;;;;;6.43;3.95;;;24.90;99.90;;;;;;4999161;28;25136;-68
2021/08/12 11:49:49;;;;;;;6.60;4.43;;;25.00;99.90;;;;;;4997419;28;25088;-68
2021/08/12 11:52:33;;;;;;;10.02;4.80;;;25.20;99.90;;;;;;4996387;28;25117;-67
2021/08/12 11:55:13;;;;;;;7.90;5.05;;;24.90;99.90;;;;;;5005256;28;25071;-68
2021/08/12 11:57:43;;;;;;;10.32;4.75;;;24.70;99.90;;;;;;4992530;28;25060;-69
2021/08/12 12:00:13;;;;;;;8.52;5.05;;;24.70;99.90;;;;;;4991140;28;25093;-69
2021/08/12 12:03:02;;;;;;;8.52;4.40;;;24.80;99.90;;;;;;4990245;28;25071;-69
2021/08/12 12:05:32;;;;;;;9.10;4.70;;;24.90;99.90;;;;;;4990148;28;25120;-68
2021/08/12 12:08:07;;;;;;;9.27;5.53;;;24.80;99.90;;;;;;5004123;28;25081;-69
2021/08/12 12:10:34;;;;;;;9.48;5.28;;;24.80;99.90;;;;;;4989579;28;25070;-68
2021/08/12 12:13:15;;;;;;;10.05;4.57;;;24.70;99.90;;;;;;4989744;28;25058;-69
2021/08/12 12:15:43;;;;;;;7.28;4.85;;;25.00;99.90;;;;;;4989946;28;25075;-69
2021/08/12 12:18:10;;;;;;;6.20;4.32;;;25.00;99.90;;;;;;4989576;28;25140;-69
2021/08/12 12:20:39;;;;;;;8.32;5.28;;;24.80;99.90;;;;;;4989472;28;25083;-70
2021/08/12 12:23:10;;;;;;;7.28;4.88;;;24.90;99.90;;;;;;4989405;28;25074;-67
2021/08/12 12:25:38;;;;;;;8.53;4.67;;;25.00;99.90;;;;;;4974041;28;25088;-69
2021/08/12 12:28:05;;;;;;;7.85;4.88;;;25.00;99.90;;;;;;5024257;28;25162;-69
2021/08/12 12:30:32;;;;;;;8.88;5.80;;;25.10;99.90;;;;;;4996885;28;25115;-69
2021/08/12 12:33:09;;;;;;;9.88;5.45;;;25.10;99.90;;;;;;4989016;28;25167;-68
2021/08/12 12:35:43;;;;;;;8.27;4.82;;;24.90;99.90;;;;;;4989733;28;25142;-68
2021/08/12 12:38:14;;;;;;;13.98;5.45;;;25.10;99.90;;;;;;4990047;28;25063;-67
2021/08/12 12:40:40;;;;;;;9.93;4.82;;;25.30;99.90;;;;;;4990860;28;25107;-68
2021/08/12 12:43:07;;;;;;;11.30;5.50;;;25.30;99.90;;;;;;4992581;28;25165;-68